Time;durP1;ratioP1;P1;durP2;ratioP2;P2;SDS_P1;SDS_P2;PMS_P1;PMS_P2;Temp;Humidity;BMP_temperature;BMP_pressure;BME280_temperature;BME280_humidity;BME280_pressure;Samples;Min_cycle;Max_cycle;Signal;HPM_P1;HPM_P2
2022/05/25 00:01:42;;;;;;;23.88;10.90;;;;;;;18.81;80.24;98265.38;5102161;28;20040;-92
2022/05/25 00:04:10;;;;;;;19.92;11.32;;;;;;;18.62;79.77;98236.97;5100446;28;20119;-93
2022/05/25 00:06:36;;;;;;;18.92;10.50;;;;;;;18.68;80.02;98262.63;5103122;28;20048;-92
2022/05/25 00:09:03;;;;;;;26.02;10.85;;;;;;;18.47;80.68;98249.66;5097808;28;20093;-92
2022/05/25 00:11:28;;;;;;;22.85;11.27;;;;;;;18.43;81.14;98260.72;5100557;28;20044;-92
2022/05/25 00:13:54;;;;;;;21.15;10.55;;;;;;;18.46;81.56;98282.09;5109985;28;20512;-92
2022/05/25 00:16:20;;;;;;;25.70;11.55;;;;;;;18.30;82.73;98286.75;5104164;28;20432;-92
2022/05/25 00:21:47;;;;;;;21.52;10.48;;;;;;;18.21;82.91;98281.00;5091405;27;20721;-92
2022/05/25 00:24:13;;;;;;;22.73;10.77;;;;;;;18.11;83.40;98274.53;5091399;28;20036;-93
2022/05/25 00:26:39;;;;;;;27.73;11.43;;;;;;;18.09;83.90;98272.91;5091496;28;20044;-92
2022/05/25 00:29:05;;;;;;;22.05;11.63;;;;;;;18.21;84.49;98297.16;5091535;28;20036;-92
2022/05/25 00:31:31;;;;;;;22.08;10.77;;;;;;;18.15;83.55;98283.25;5091307;28;20736;-92
2022/05/25 00:33:58;;;;;;;22.30;10.90;;;;;;;18.12;83.45;98284.31;5090886;28;20052;-91
2022/05/25 00:36:24;;;;;;;20.15;11.45;;;;;;;18.13;84.15;98290.53;5091914;28;20040;-93
2022/05/25 00:38:51;;;;;;;30.55;10.95;;;;;;;18.02;84.52;98288.56;5091921;28;20063;-92
2022/05/25 00:41:17;;;;;;;23.75;10.93;;;;;;;17.97;83.44;98279.94;5090654;28;20035;-93
2022/05/25 00:43:43;;;;;;;18.52;10.13;;;;;;;17.92;84.30;98277.53;5091136;28;20032;-92
2022/05/25 00:46:13;;;;;;;21.80;10.35;;;;;;;17.77;85.53;98263.22;5091010;28;20033;-93
2022/05/25 00:48:43;;;;;;;24.85;10.85;;;;;;;17.74;85.09;98268.81;5091207;28;20432;-93
2022/05/25 00:51:12;;;;;;;22.67;10.95;;;;;;;17.83;84.74;98289.75;5091283;28;20036;-92
2022/05/25 00:53:40;;;;;;;20.42;10.63;;;;;;;17.76;85.93;98277.66;5091081;28;20047;-93
2022/05/25 00:56:09;;;;;;;23.90;10.30;;;;;;;17.60;85.59;98267.00;5090607;28;20501;-92
2022/05/25 00:58:38;;;;;;;18.30;10.63;;;;;;;17.56;86.50;98273.53;5091162;28;20051;-92
2022/05/25 01:01:04;;;;;;;20.27;10.85;;;;;;;17.55;85.60;98289.78;5090870;28;20097;-93
2022/05/25 01:03:30;;;;;;;23.48;11.60;;;;;;;17.47;86.21;98276.81;5091051;28;20044;-93
2022/05/25 01:06:02;;;;;;;23.52;11.30;;;;;;;17.31;86.89;98268.00;5090327;28;20048;-93
2022/05/25 01:08:41;;;;;;;20.80;12.02;;;;;;;17.44;86.72;98298.50;5090121;28;20047;-92
2022/05/25 01:11:15;;;;;;;;;;;;;;;17.35;87.67;98293.69;5083057;28;20028;-91
2022/05/25 01:13:48;;;;;;;19.35;12.07;;;;;;;17.26;88.77;98284.38;5080004;28;19920;-93
2022/05/25 01:16:25;;;;;;;30.80;12.63;;;;;;;17.15;89.56;98268.06;5090329;28;20123;-93
2022/05/25 01:18:57;;;;;;;26.23;12.02;;;;;;;17.20;89.97;98268.66;5089889;28;20454;-92
2022/05/25 01:21:28;;;;;;;28.15;12.57;;;;;;;17.38;89.46;98285.44;5089924;28;20494;-93
2022/05/25 01:24:11;;;;;;;26.95;11.85;;;;;;;17.36;89.74;98269.41;5090106;28;20044;-93
2022/05/25 01:27:23;;;;;;;25.42;12.00;;;;;;;17.45;89.05;98263.44;5083979;28;20032;-91
2022/05/25 01:30:06;;;;;;;22.23;11.45;;;;;;;17.43;88.96;98265.38;5089536;28;20033;-92
2022/05/25 01:32:42;;;;;;;24.70;11.88;;;;;;;17.50;89.68;98284.69;5078505;28;20126;-93
2022/05/25 01:35:17;;;;;;;23.38;11.15;;;;;;;17.53;89.58;98280.94;5077042;28;20036;-92
2022/05/25 01:37:51;;;;;;;21.15;11.52;;;;;;;17.58;89.76;98270.75;5073182;28;20056;-94
2022/05/25 01:40:23;;;;;;;19.95;11.48;;;;;;;17.66;88.95;98271.97;5075144;28;20032;-92
2022/05/25 01:42:54;;;;;;;23.60;11.43;;;;;;;17.71;88.99;98274.38;5076550;28;20498;-95
2022/05/25 01:45:25;;;;;;;24.40;12.00;;;;;;;17.53;89.30;98251.38;5076547;28;20119;-94
2022/05/25 01:47:52;;;;;;;19.95;11.20;;;;;;;17.56;88.95;98265.47;5076388;28;20043;-92
2022/05/25 01:50:23;;;;;;;22.17;11.88;;;;;;;17.58;88.61;98279.66;5076193;28;20040;-94
2022/05/25 01:52:54;;;;;;;25.10;11.02;;;;;;;17.55;88.02;98252.13;5076474;28;20346;-93
2022/05/25 01:55:24;;;;;;;25.05;11.75;;;;;;;17.49;88.69;98260.59;5076727;28;20500;-92
2022/05/25 01:57:54;;;;;;;18.60;11.50;;;;;;;17.34;89.69;98259.72;5076161;28;20418;-93
2022/05/25 02:00:31;;;;;;;24.30;12.45;;;;;;;17.22;89.30;98251.47;5076342;28;20040;-92
2022/05/25 02:06:11;;;;;;;22.20;11.65;;;;;;;17.23;89.56;98279.19;5152266;27;20397;-91
2022/05/25 02:08:42;;;;;;;24.38;11.45;;;;;;;17.22;89.93;98280.19;5151842;27;20446;-92
2022/05/25 02:11:15;;;;;;;28.05;13.40;;;;;;;17.15;92.21;98270.75;5150537;27;20123;-92
2022/05/25 02:13:54;;;;;;;25.30;12.73;;;;;;;17.08;92.21;98261.34;5151849;27;20035;-89
2022/05/25 02:16:30;;;;;;;25.83;13.20;;;;;;;17.02;92.85;98260.78;5151048;27;20035;-91
2022/05/25 02:19:05;;;;;;;24.17;13.55;;;;;;;17.05;92.91;98259.72;5150991;27;20467;-92
2022/05/25 02:21:40;;;;;;;25.67;12.73;;;;;;;17.03;91.96;98251.75;5151525;27;20059;-92
2022/05/25 02:24:12;;;;;;;22.00;12.65;;;;;;;17.03;92.89;98251.75;5150437;27;20876;-92
2022/05/25 02:26:45;;;;;;;24.95;13.23;;;;;;;17.05;91.94;98251.66;5152402;27;20035;-91
2022/05/25 02:29:17;;;;;;;28.85;13.50;;;;;;;17.07;93.00;98246.16;5152210;27;20038;-92
2022/05/25 02:31:47;;;;;;;28.58;13.13;;;;;;;17.13;92.24;98253.84;5151823;27;20125;-91
2022/05/25 02:34:16;;;;;;;29.90;13.38;;;;;;;17.11;92.02;98237.84;5152210;27;20035;-93
2022/05/25 02:36:45;;;;;;;26.13;12.95;;;;;;;17.08;92.00;98237.16;5152223;27;20039;-91
2022/05/25 02:39:11;;;;;;;;;;;;;;;17.10;92.19;98248.69;5143509;27;20039;-92
2022/05/25 02:41:43;;;;;;;30.58;13.65;;;;;;;16.98;91.95;98231.47;5152026;27;19919;-92
2022/05/25 02:44:09;;;;;;;24.70;12.23;;;;;;;17.07;91.73;98243.47;5151130;27;20026;-93
2022/05/25 02:46:35;;;;;;;25.80;11.85;;;;;;;16.99;92.14;98234.09;5152221;27;20088;-91
2022/05/25 02:49:01;;;;;;;19.83;12.40;;;;;;;16.91;92.27;98228.31;5151762;27;20043;-91
2022/05/25 02:51:27;;;;;;;22.42;12.05;;;;;;;16.98;93.18;98232.38;5151365;27;20055;-90
2022/05/25 02:53:54;;;;;;;25.35;13.50;;;;;;;16.88;93.26;98220.47;5151719;27;20526;-91
2022/05/25 02:56:20;;;;;;;23.52;12.27;;;;;;;16.84;92.99;98217.09;5151198;27;20445;-91
2022/05/25 02:58:45;;;;;;;23.15;12.65;;;;;;;16.84;93.13;98221.59;5150094;27;20067;-91
2022/05/25 03:01:11;;;;;;;19.98;11.43;;;;;;;16.81;93.03;98219.97;5151116;27;20035;-93
2022/05/25 03:03:38;;;;;;;23.27;11.75;;;;;;;16.81;94.51;98245.97;5151256;27;20122;-93
2022/05/25 03:06:04;;;;;;;25.08;12.05;;;;;;;16.66;94.26;98228.94;5151817;27;20043;-93
2022/05/25 03:08:29;;;;;;;20.25;11.90;;;;;;;16.66;94.06;98236.13;5152018;27;20438;-94
2022/05/25 03:10:57;;;;;;;20.58;11.05;;;;;;;16.64;93.74;98234.38;5151945;27;20062;-92
2022/05/25 03:13:22;;;;;;;22.05;11.40;;;;;;;16.64;93.52;98234.38;5151992;27;20043;-92
2022/05/25 03:15:49;;;;;;;26.50;12.65;;;;;;;16.58;94.77;98245.50;5145645;27;20043;-93
2022/05/25 03:18:15;;;;;;;22.10;11.93;;;;;;;16.50;94.32;98237.03;5135969;27;20046;-94
2022/05/25 03:20:42;;;;;;;25.42;12.52;;;;;;;16.40;96.26;98241.22;5137833;27;20096;-92
2022/05/25 03:23:08;;;;;;;23.10;12.23;;;;;;;16.38;95.40;98238.63;5137918;27;20057;-92
2022/05/25 03:25:34;;;;;;;22.65;11.82;;;;;;;16.41;96.28;98249.16;5138001;27;20403;-92
2022/05/25 03:28:03;;;;;;;25.63;13.05;;;;;;;16.42;96.63;98258.09;5137684;27;20035;-92
2022/05/25 03:30:29;;;;;;;20.85;12.05;;;;;;;16.35;95.84;98243.31;5137908;27;20436;-91
2022/05/25 03:32:54;;;;;;;21.48;12.10;;;;;;;16.40;95.63;98257.34;5137590;27;20070;-95
2022/05/25 03:35:20;;;;;;;20.15;12.07;;;;;;;16.30;96.95;98258.81;5137468;27;20039;-92
2022/05/25 03:37:46;;;;;;;26.58;13.20;;;;;;;16.32;98.20;98268.50;5136731;27;20043;-94
2022/05/25 03:40:13;;;;;;;21.30;12.80;;;;;;;16.21;99.47;98249.50;5136884;27;20031;-93
2022/05/25 03:42:42;;;;;;;24.65;11.50;;;;;;;16.23;98.49;98259.19;5137545;27;20047;-94
2022/05/25 03:45:11;;;;;;;21.00;12.82;;;;;;;16.41;98.07;98286.75;5137583;27;20127;-94
2022/05/25 03:47:38;;;;;;;21.83;12.60;;;;;;;16.40;97.27;98278.81;5137493;27;20035;-92
2022/05/25 03:50:04;;;;;;;23.48;12.73;;;;;;;16.34;97.17;98268.44;5137528;27;20042;-94
2022/05/25 03:52:30;;;;;;;25.95;12.57;;;;;;;16.32;97.49;98273.88;5136983;27;20043;-94
2022/05/25 03:54:56;;;;;;;26.90;13.02;;;;;;;16.37;97.06;98270.91;5136860;27;20040;-93
2022/05/25 03:57:22;;;;;;;20.00;12.40;;;;;;;16.40;97.36;98270.75;5137120;27;20031;-94
2022/05/25 03:59:48;;;;;;;21.48;12.27;;;;;;;16.41;96.99;98262.59;5136943;27;20043;-92
2022/05/25 04:02:15;;;;;;;22.05;12.48;;;;;;;16.33;97.83;98272.94;5137053;27;20092;-93
2022/05/25 04:04:41;;;;;;;24.45;11.70;;;;;;;16.37;97.84;98273.59;5136990;27;20066;-93
2022/05/25 04:07:07;;;;;;;18.95;12.13;;;;;;;16.51;97.27;98283.53;5136985;27;20039;-94
2022/05/25 04:09:33;;;;;;;22.95;13.02;;;;;;;16.44;96.50;98280.34;5136929;27;20039;-94
2022/05/25 04:11:58;;;;;;;23.98;12.25;;;;;;;16.49;95.92;98293.50;5137184;27;20063;-93
2022/05/25 04:14:24;;;;;;;20.02;11.70;;;;;;;16.46;95.94;98302.59;5136915;27;20043;-94
2022/05/25 04:16:50;;;;;;;20.65;12.93;;;;;;;16.43;96.80;98317.03;5136785;27;20039;-95
2022/05/25 04:19:17;;;;;;;19.67;12.07;;;;;;;16.38;96.70;98308.41;5137050;27;20058;-94
2022/05/25 04:21:43;;;;;;;21.02;12.77;;;;;;;16.41;97.51;98304.66;5136490;27;20036;-94
2022/05/25 04:24:12;;;;;;;24.92;12.57;;;;;;;16.39;97.82;98298.53;5136202;27;20038;-94
2022/05/25 04:26:38;;;;;;;24.10;13.15;;;;;;;16.52;96.10;98320.16;5136187;27;20035;-92
2022/05/25 04:29:04;;;;;;;24.13;11.93;;;;;;;16.50;96.40;98330.97;5135612;27;20537;-94
2022/05/25 04:31:29;;;;;;;23.55;11.77;;;;;;;16.48;96.85;98319.47;5136521;27;20039;-94
2022/05/25 04:33:55;;;;;;;24.48;11.93;;;;;;;16.45;97.65;98322.31;5136259;27;20045;-95
2022/05/25 04:36:23;;;;;;;25.15;12.52;;;;;;;16.38;97.43;98310.22;5136222;27;20039;-94
2022/05/25 04:38:48;;;;;;;22.60;12.02;;;;;;;16.47;98.07;98324.94;5136218;27;20043;-93
2022/05/25 04:41:14;;;;;;;24.42;12.10;;;;;;;16.44;97.95;98315.25;5136233;27;20035;-95
2022/05/25 04:43:40;;;;;;;19.90;12.45;;;;;;;16.58;97.65;98336.75;5136221;27;20041;-94
2022/05/25 04:46:07;;;;;;;24.67;12.23;;;;;;;16.64;96.72;98339.09;5136290;27;20064;-93
2022/05/25 04:48:33;;;;;;;22.63;12.27;;;;;;;16.65;97.00;98337.25;5136064;27;20114;-94
2022/05/25 04:50:59;;;;;;;22.15;12.15;;;;;;;16.63;96.74;98334.69;5131535;27;20100;-94
2022/05/25 04:53:27;;;;;;;25.70;13.00;;;;;;;16.68;97.08;98341.63;5136597;27;20514;-93
2022/05/25 04:58:53;;;;;;;21.48;12.13;;;;;;;16.79;96.55;98350.75;5134062;27;20384;-91
2022/05/25 05:01:19;;;;;;;24.13;12.73;;;;;;;16.85;95.98;98354.94;5134431;27;20044;-96
2022/05/25 05:03:45;;;;;;;24.30;13.25;;;;;;;16.96;94.47;98344.41;5134196;28;20093;-95
2022/05/25 05:06:12;;;;;;;25.10;13.68;;;;;;;17.15;91.60;98352.19;5133422;28;20518;-94
2022/05/25 05:08:38;;;;;;;20.15;12.70;;;;;;;17.44;90.59;98357.66;5133348;27;20042;-92
2022/05/25 05:11:09;;;;;;;20.15;12.57;;;;;;;17.69;89.77;98370.41;5132599;28;20047;-92
2022/05/25 05:13:36;;;;;;;22.27;12.23;;;;;;;17.97;87.83;98350.75;5132785;28;20104;-92
2022/05/25 05:16:07;;;;;;;21.38;12.48;;;;;;;18.30;85.45;98356.72;5132212;27;20051;-93
2022/05/25 05:18:36;;;;;;;21.40;11.93;;;;;;;18.43;83.81;98342.38;5131666;28;20036;-92
2022/05/25 05:21:02;;;;;;;;;;;;;;;18.83;81.32;98352.34;5132838;28;20451;-93
2022/05/25 05:23:28;;;;;;;19.35;12.15;;;;;;;18.57;81.57;98332.53;5132121;28;19955;-93
2022/05/25 05:25:54;;;;;;;22.73;11.68;;;;;;;18.50;82.75;98333.88;5134979;27;20138;-93
2022/05/25 05:28:23;;;;;;;29.30;11.90;;;;;;;18.36;83.56;98326.72;5130357;28;20147;-92
2022/05/25 05:30:52;;;;;;;24.30;12.32;;;;;;;18.61;83.01;98351.06;5131479;27;20121;-94
2022/05/25 05:33:19;;;;;;;;;;;;;;;18.76;82.11;98356.38;5131768;28;20485;-93
2022/05/25 05:35:49;;;;;;;22.92;12.45;;;;;;;18.32;83.48;98349.41;5128774;28;19923;-92
2022/05/25 05:38:17;;;;;;;22.65;11.68;;;;;;;18.52;83.87;98348.09;5131177;28;20035;-91
2022/05/25 05:40:47;;;;;;;24.02;12.50;;;;;;;18.52;83.97;98335.53;5131697;27;20035;-93
2022/05/25 05:43:13;;;;;;;21.15;12.18;;;;;;;18.92;81.60;98353.56;5131691;28;20035;-92
2022/05/25 05:45:42;;;;;;;23.38;11.90;;;;;;;19.21;80.72;98340.78;5132714;28;20054;-93
2022/05/25 05:48:12;;;;;;;22.05;11.88;;;;;;;19.31;79.45;98354.50;5133375;27;20043;-93
2022/05/25 05:50:41;;;;;;;19.67;11.93;;;;;;;19.49;76.54;98359.44;5134225;28;20524;-96
2022/05/25 05:53:09;;;;;;;24.98;11.98;;;;;;;19.57;78.01;98353.53;5133476;28;20058;-94
2022/05/25 05:55:36;;;;;;;20.23;11.20;;;;;;;19.90;76.18;98357.50;5133808;28;20049;-93
2022/05/25 05:58:03;;;;;;;24.10;11.05;;;;;;;20.37;74.23;98371.25;5132579;28;20051;-94
2022/05/25 06:00:29;;;;;;;19.50;11.15;;;;;;;20.61;72.59;98363.19;5133531;28;20048;-92
2022/05/25 06:02:59;;;;;;;30.40;11.10;;;;;;;20.82;71.04;98352.59;5134587;28;20122;-95
2022/05/25 06:05:26;;;;;;;23.55;10.88;;;;;;;21.08;69.85;98372.25;5138438;28;20046;-95
2022/05/25 06:07:54;;;;;;;20.58;11.32;;;;;;;21.23;69.08;98379.19;5138120;28;20046;-95
2022/05/25 06:10:23;;;;;;;18.38;10.43;;;;;;;21.21;68.64;98370.34;5123964;28;20485;-95
2022/05/25 06:12:48;;;;;;;;;;;;;;;21.40;68.32;98393.22;5125155;28;20043;-95
2022/05/25 06:21:16;;;;;;;16.55;9.93;;;;;;;21.20;68.16;98386.66;5134188;27;20376;-94
2022/05/25 06:23:42;;;;;;;22.48;11.10;;;;;;;20.90;69.85;98385.31;5134446;28;20047;-94
2022/05/25 06:26:08;;;;;;;17.17;10.98;;;;;;;21.02;69.27;98372.72;5135356;28;20047;-93
2022/05/25 06:28:34;;;;;;;20.20;10.38;;;;;;;21.43;68.25;98399.31;5137507;28;20039;-94
2022/05/25 06:31:00;;;;;;;24.60;12.50;;;;;;;21.73;67.36;98404.16;5137782;28;20072;-94
2022/05/25 06:33:29;;;;;;;22.15;10.63;;;;;;;21.76;66.52;98402.19;5138718;28;20134;-94
2022/05/25 06:35:56;;;;;;;19.95;10.68;;;;;;;21.67;66.57;98380.28;5136574;28;20043;-94
2022/05/25 06:38:23;;;;;;;22.73;11.55;;;;;;;21.95;66.07;98399.75;5136363;28;20036;-94
2022/05/25 06:40:49;;;;;;;23.17;10.63;;;;;;;22.06;65.94;98390.78;5137358;28;20138;-93
2022/05/25 06:43:15;;;;;;;19.38;10.82;;;;;;;22.29;64.40;98389.81;5134705;28;20497;-94
2022/05/25 06:45:41;;;;;;;21.05;10.48;;;;;;;22.25;64.36;98372.09;5137964;28;20047;-94
2022/05/25 06:48:07;;;;;;;18.38;10.73;;;;;;;22.33;64.65;98385.84;5137262;28;20146;-94
2022/05/25 06:50:34;;;;;;;18.05;10.45;;;;;;;22.45;63.17;98378.59;5137793;28;20122;-94
2022/05/25 06:53:00;;;;;;;18.17;10.30;;;;;;;22.45;64.12;98394.00;5136866;28;20043;-93
2022/05/25 06:55:27;;;;;;;17.63;10.15;;;;;;;22.60;63.51;98403.56;5136954;28;20039;-93
2022/05/25 06:57:53;;;;;;;20.05;10.10;;;;;;;22.56;63.56;98377.69;5136856;28;20142;-95
2022/05/25 07:00:19;;;;;;;17.30;9.15;;;;;;;22.61;63.34;98361.06;5137969;28;20504;-93
2022/05/25 07:02:45;;;;;;;19.50;10.73;;;;;;;22.76;63.22;98368.75;5136409;28;20050;-94
2022/05/25 07:05:11;;;;;;;15.65;9.40;;;;;;;22.37;64.37;98372.06;5136711;28;20051;-93
2022/05/25 07:07:38;;;;;;;19.88;10.85;;;;;;;22.58;63.98;98372.16;5132769;28;20047;-95
2022/05/25 07:10:05;;;;;;;19.02;10.18;;;;;;;22.87;63.76;98392.25;5134465;28;20438;-93
2022/05/25 07:12:32;;;;;;;20.42;11.45;;;;;;;22.95;62.43;98369.94;5135254;28;20051;-95
2022/05/25 07:14:58;;;;;;;21.90;10.98;;;;;;;22.74;63.44;98365.31;5136703;28;20401;-95
2022/05/25 07:17:24;;;;;;;19.85;11.10;;;;;;;22.82;62.58;98380.09;5135560;28;20039;-94
2022/05/25 07:19:50;;;;;;;21.77;10.45;;;;;;;22.83;63.14;98362.81;5135911;28;20223;-93
2022/05/25 07:22:16;;;;;;;22.08;11.07;;;;;;;23.16;61.46;98375.41;5131332;28;20546;-93
2022/05/25 07:24:41;;;;;;;18.02;10.10;;;;;;;23.34;58.85;98367.56;5133531;28;20039;-94
2022/05/25 07:27:07;;;;;;;19.70;10.65;;;;;;;23.24;60.33;98382.91;5133070;28;20048;-93
2022/05/25 07:29:36;;;;;;;22.67;11.57;;;;;;;22.63;61.44;98370.78;5133502;28;20063;-94
2022/05/25 07:32:06;;;;;;;17.42;10.38;;;;;;;22.70;63.08;98365.69;5124501;28;20048;-95
2022/05/25 07:34:38;;;;;;;19.67;9.90;;;;;;;23.04;61.17;98360.19;5120766;28;20044;-94
2022/05/25 07:37:10;;;;;;;15.18;8.65;;;;;;;23.37;58.25;98370.00;5122479;28;20046;-93
2022/05/25 07:39:40;;;;;;;16.33;7.45;;;;;;;23.69;52.38;98383.50;5117089;28;20385;-95
2022/05/25 07:42:07;;;;;;;17.60;7.70;;;;;;;23.64;53.54;98360.44;5122110;28;20096;-94
2022/05/25 07:44:41;;;;;;;16.58;8.02;;;;;;;23.97;52.36;98375.69;5121104;28;20040;-94
2022/05/25 07:47:07;;;;;;;21.08;8.48;;;;;;;24.22;52.86;98363.47;5118512;28;20043;-94
2022/05/25 07:49:32;;;;;;;17.10;8.25;;;;;;;24.50;53.53;98366.44;5119299;28;20572;-92
2022/05/25 07:52:00;;;;;;;12.40;6.70;;;;;;;24.58;48.37;98358.47;5118280;28;20058;-94
2022/05/25 07:54:26;;;;;;;13.15;6.43;;;;;;;24.97;48.16;98358.50;5119202;28;20048;-96
2022/05/25 07:56:52;;;;;;;13.05;7.13;;;;;;;25.09;47.43;98357.38;5118750;28;20039;-94
2022/05/25 07:59:18;;;;;;;12.50;6.80;;;;;;;25.26;46.87;98357.66;5118362;28;20036;-94
2022/05/25 08:07:50;;;;;;;13.25;6.85;;;;;;;24.70;48.23;98372.78;5110059;27;20389;-94
2022/05/25 08:10:22;;;;;;;11.65;6.07;;;;;;;24.79;46.77;98355.63;5075494;28;20044;-94
2022/05/25 08:12:49;;;;;;;11.07;5.25;;;;;;;25.14;43.54;98354.22;5072490;28;20083;-93
2022/05/25 08:15:15;;;;;;;11.05;5.93;;;;;;;25.32;42.48;98378.84;5078738;28;20102;-94
2022/05/25 08:17:43;;;;;;;10.70;5.43;;;;;;;25.19;40.86;98368.22;5076000;28;20376;-94
2022/05/25 08:20:10;;;;;;;12.55;6.10;;;;;;;24.95;43.16;98360.50;5074318;28;20076;-95
2022/05/25 08:22:38;;;;;;;8.17;4.70;;;;;;;25.18;40.79;98367.38;5083306;28;20045;-94
2022/05/25 08:25:07;;;;;;;12.07;5.57;;;;;;;25.08;40.16;98371.09;5075110;28;20041;-94
2022/05/25 08:27:33;;;;;;;12.38;5.55;;;;;;;25.39;39.44;98370.00;5080339;28;20048;-95
2022/05/25 08:29:59;;;;;;;13.48;4.97;;;;;;;25.72;39.53;98365.03;5074488;28;20049;-92
2022/05/25 08:32:25;;;;;;;10.02;4.80;;;;;;;25.92;37.78;98370.47;5085482;28;20035;-93
2022/05/25 08:34:51;;;;;;;9.93;4.35;;;;;;;25.88;35.74;98374.47;5084974;28;20450;-91
2022/05/25 08:37:16;;;;;;;8.40;4.47;;;;;;;26.19;36.10;98367.75;5072681;28;20052;-92
2022/05/25 08:39:42;;;;;;;10.52;4.80;;;;;;;25.98;35.32;98359.84;5077286;28;20042;-91
2022/05/25 08:42:14;;;;;;;8.52;4.43;;;;;;;26.09;34.78;98372.41;5079960;28;20036;-93
2022/05/25 08:44:42;;;;;;;9.38;4.45;;;;;;;26.07;34.65;98373.53;5075689;28;20052;-92
2022/05/25 08:47:12;;;;;;;9.10;4.97;;;;;;;25.91;35.10;98363.28;5075059;28;20114;-92
2022/05/25 08:49:40;;;;;;;8.70;4.20;;;;;;;26.29;36.27;98385.94;5084074;28;20044;-93
2022/05/25 08:52:15;;;;;;;;;;;;;;;26.43;34.16;98391.72;5078772;28;20040;-93
2022/05/25 08:54:41;;;;;;;13.77;4.57;;;;;;;26.81;34.80;98372.63;5071128;28;20008;-94
2022/05/25 08:57:13;;;;;;;11.32;4.65;;;;;;;26.95;34.63;98369.34;5071442;28;20076;-92
2022/05/25 08:59:45;;;;;;;10.68;4.32;;;;;;;27.07;33.73;98375.44;5075163;28;20041;-93
2022/05/25 09:02:20;;;;;;;10.60;4.40;;;;;;;27.02;33.61;98366.84;5075675;28;20045;-93
2022/05/25 09:04:51;;;;;;;13.70;4.93;;;;;;;27.21;33.93;98383.09;5074264;28;20102;-92
2022/05/25 09:07:25;;;;;;;7.32;4.43;;;;;;;27.12;32.67;98369.50;5072120;28;20402;-93
2022/05/25 09:09:52;;;;;;;9.63;4.45;;;;;;;27.17;32.38;98381.69;5081135;28;20429;-94
2022/05/25 09:12:25;;;;;;;8.45;4.32;;;;;;;27.42;33.25;98385.50;5073426;28;20518;-93
2022/05/25 09:14:58;;;;;;;12.63;4.57;;;;;;;27.43;34.12;98362.66;5073896;28;20094;-91
2022/05/25 09:17:31;;;;;;;11.00;4.68;;;;;;;27.30;33.21;98354.00;5070038;28;20537;-92
2022/05/25 09:19:59;;;;;;;10.32;4.15;;;;;;;27.50;33.20;98372.91;5059843;28;20532;-92
2022/05/25 09:22:26;;;;;;;12.48;4.43;;;;;;;27.55;32.08;98371.44;5056539;28;20043;-93
2022/05/25 09:24:55;;;;;;;8.95;4.85;;;;;;;27.60;31.36;98377.28;5064942;28;20057;-95
2022/05/25 09:27:28;;;;;;;9.10;4.35;;;;;;;27.15;31.39;98372.78;5065634;28;20088;-92
2022/05/25 09:29:59;;;;;;;11.95;4.50;;;;;;;27.48;31.34;98370.38;5061019;28;20056;-93
2022/05/25 09:32:40;;;;;;;11.40;4.78;;;;;;;27.12;30.56;98353.97;5061576;28;20091;-94
2022/05/25 09:35:10;;;;;;;8.23;4.10;;;;;;;27.69;31.37;98380.91;5059600;28;20123;-93
2022/05/25 09:37:44;;;;;;;13.50;6.35;;;;;;;27.92;30.11;98372.22;5057823;28;20049;-93
2022/05/25 09:40:18;;;;;;;10.05;4.80;;;;;;;27.97;30.83;98384.38;5060360;28;20376;-92
2022/05/25 09:42:50;;;;;;;8.35;4.00;;;;;;;27.85;31.12;98388.41;5066606;28;20045;-93
2022/05/25 09:45:16;;;;;;;8.70;4.43;;;;;;;27.96;30.79;98379.94;5062925;28;20170;-94
2022/05/25 09:47:44;;;;;;;8.73;4.53;;;;;;;27.50;31.14;98379.25;5059044;28;20560;-91
2022/05/25 09:50:25;;;;;;;8.30;4.18;;;;;;;27.67;31.38;98361.09;5056562;28;20124;-95
2022/05/25 09:52:53;;;;;;;11.13;4.88;;;;;;;27.97;30.00;98367.13;5061211;28;20052;-94
2022/05/25 09:55:24;;;;;;;8.65;4.50;;;;;;;27.96;29.89;98382.69;5060874;28;20348;-92
2022/05/25 09:57:59;;;;;;;12.85;4.38;;;;;;;27.87;30.86;98380.91;5061623;28;20080;-92
2022/05/25 10:00:41;;;;;;;8.05;3.95;;;;;;;27.83;30.55;98371.28;5064880;28;20044;-93
2022/05/25 10:03:10;;;;;;;9.50;4.35;;;;;;;27.44;30.68;98368.97;5058560;28;20055;-94
2022/05/25 10:05:52;;;;;;;7.85;3.75;;;;;;;27.88;31.88;98379.03;5069046;28;20123;-93
2022/05/25 10:08:27;;;;;;;8.88;4.35;;;;;;;28.19;31.15;98365.69;5070242;28;20086;-93
2022/05/25 10:10:56;;;;;;;7.15;3.85;;;;;;;28.44;29.63;98367.53;5066184;28;20045;-93
2022/05/25 10:13:26;;;;;;;13.07;4.00;;;;;;;28.02;29.36;98357.44;5068974;28;20045;-94
2022/05/25 10:15:53;;;;;;;7.07;3.92;;;;;;;28.38;29.19;98346.31;5063690;28;20041;-92
2022/05/25 10:18:35;;;;;;;10.65;3.97;;;;;;;28.34;28.59;98355.84;5059756;28;20075;-93
2022/05/25 10:21:02;;;;;;;11.70;4.32;;;;;;;28.85;27.60;98378.63;5057399;28;20045;-92
2022/05/25 10:23:28;;;;;;;8.38;3.67;;;;;;;28.77;26.16;98364.94;5059605;28;20516;-92
2022/05/25 10:25:56;;;;;;;7.57;3.83;;;;;;;28.76;26.87;98367.84;5055473;28;20033;-93
2022/05/25 10:28:27;;;;;;;7.30;3.88;;;;;;;28.96;26.56;98365.66;5056662;28;20095;-92
2022/05/25 10:37:19;;;;;;;9.77;3.78;;;;;;;29.21;24.68;98359.22;5148312;27;20851;-90
2022/05/25 10:39:56;;;;;;;9.85;3.60;;;;;;;29.19;24.39;98358.53;5142467;27;20534;-93
2022/05/25 10:42:26;;;;;;;10.13;3.85;;;;;;;28.97;25.10;98357.25;5143792;27;20039;-94
2022/05/25 10:45:01;;;;;;;10.63;3.80;;;;;;;29.35;24.94;98357.69;5143141;27;20123;-93
2022/05/25 10:47:45;;;;;;;9.40;3.90;;;;;;;29.60;24.66;98364.00;5147426;27;20035;-92
2022/05/25 10:50:16;;;;;;;11.13;4.57;;;;;;;28.88;25.10;98359.13;5139889;27;20051;-93
2022/05/25 10:52:48;;;;;;;8.07;4.03;;;;;;;29.24;24.76;98352.53;5151799;27;20058;-93
2022/05/25 10:55:14;;;;;;;9.20;3.70;;;;;;;29.26;23.76;98356.81;5150149;27;20039;-93
2022/05/25 10:58:24;;;;;;;7.43;3.58;;;;;;;29.52;23.91;98357.69;5142804;27;20119;-94
2022/05/25 11:01:05;;;;;;;9.57;3.78;;;;;;;29.66;23.88;98368.78;5138035;27;20045;-92
2022/05/25 11:04:08;;;;;;;6.88;3.47;;;;;;;29.73;23.37;98370.84;5141752;27;20042;-93
2022/05/25 11:06:55;;;;;;;9.15;3.58;;;;;;;29.68;24.29;98355.75;5139271;27;20672;-92
2022/05/25 11:09:37;;;;;;;9.70;3.92;;;;;;;29.30;23.49;98346.38;5146051;27;20520;-94
2022/05/25 11:12:19;;;;;;;6.93;3.58;;;;;;;29.48;23.95;98337.97;5152268;27;20062;-91
2022/05/25 11:14:55;;;;;;;8.30;4.20;;;;;;;29.37;24.10;98321.91;5149752;27;20804;-94
2022/05/25 11:17:36;;;;;;;8.90;4.10;;;;;;;29.45;24.38;98341.06;5143950;27;20055;-93
2022/05/25 11:20:23;;;;;;;8.38;3.50;;;;;;;29.35;24.33;98343.13;5150283;27;20050;-93
2022/05/25 11:23:15;;;;;;;12.93;3.92;;;;;;;29.60;24.40;98350.31;5139819;27;20493;-93
2022/05/25 11:26:03;;;;;;;13.57;3.90;;;;;;;29.73;24.66;98347.03;5153355;27;20094;-93
2022/05/25 11:28:46;;;;;;;11.90;3.70;;;;;;;29.79;24.77;98329.91;5140958;27;20056;-94
2022/05/25 11:31:23;;;;;;;9.65;3.97;;;;;;;29.90;24.38;98345.97;5139849;27;20068;-94
2022/05/25 11:34:09;;;;;;;8.07;3.72;;;;;;;29.84;25.44;98346.69;5143080;27;20050;-93
2022/05/25 11:36:48;;;;;;;8.48;4.20;;;;;;;30.12;24.53;98343.50;5146965;27;20040;-94
2022/05/25 11:39:21;;;;;;;9.57;3.92;;;;;;;30.19;25.06;98335.44;5132072;27;20043;-93
2022/05/25 11:42:01;;;;;;;9.70;3.88;;;;;;;30.25;25.06;98341.09;5144748;27;20370;-93
2022/05/25 11:44:43;;;;;;;14.18;4.10;;;;;;;30.22;24.88;98343.31;5142224;27;20040;-95
2022/05/25 11:47:23;;;;;;;8.38;4.07;;;;;;;30.34;25.34;98343.81;5138165;27;20093;-94
2022/05/25 11:50:05;;;;;;;8.07;3.92;;;;;;;29.97;25.44;98358.97;5133434;27;20405;-93
2022/05/25 11:53:08;;;;;;;10.45;4.05;;;;;;;30.16;25.83;98364.06;5128539;27;20516;-93
2022/05/25 11:55:42;;;;;;;12.55;4.60;;;;;;;30.07;25.51;98356.91;5093681;28;20047;-93
2022/05/25 11:58:21;;;;;;;7.15;3.88;;;;;;;29.96;26.68;98349.91;5095651;28;20047;-93
2022/05/25 12:00:57;;;;;;;9.93;4.25;;;;;;;30.14;27.05;98338.72;5096993;28;20550;-95
2022/05/25 12:03:51;;;;;;;14.52;4.22;;;;;;;30.18;27.40;98351.03;5097151;28;20536;-95
2022/05/25 12:06:32;;;;;;;8.13;3.95;;;;;;;30.23;26.76;98370.59;5096214;28;20093;-94